sensor_id;sensor_type;location;lat;lon;timestamp;pressure;altitude;pressure_sealevel;temperature;humidity
36788;BME280;22738;45.560;9.434;2022-11-18T00:05:41;98391.72;;;11.77;100.00
36788;BME280;22738;45.560;9.434;2022-11-18T00:12:23;98384.78;;;11.78;100.00
36788;BME280;22738;45.560;9.434;2022-11-18T00:19:26;98403.34;;;11.83;100.00
36788;BME280;22738;45.560;9.434;2022-11-18T00:26:12;98417.53;;;11.88;100.00
36788;BME280;22738;45.560;9.434;2022-11-18T00:32:53;98420.69;;;11.92;100.00
36788;BME280;22738;45.560;9.434;2022-11-18T00:39:35;98402.50;;;11.92;100.00
36788;BME280;22738;45.560;9.434;2022-11-18T00:46:18;98392.38;;;11.89;100.00
36788;BME280;22738;45.560;9.434;2022-11-18T00:52:59;98395.97;;;11.88;100.00
36788;BME280;22738;45.560;9.434;2022-11-18T00:59:40;98389.38;;;11.84;100.00
36788;BME280;22738;45.560;9.434;2022-11-18T01:06:21;98371.63;;;11.89;100.00
36788;BME280;22738;45.560;9.434;2022-11-18T01:13:04;98354.69;;;11.85;100.00
36788;BME280;22738;45.560;9.434;2022-11-18T01:20:00;98345.94;;;11.86;100.00
36788;BME280;22738;45.560;9.434;2022-11-18T01:26:42;98317.25;;;11.87;100.00
36788;BME280;22738;45.560;9.434;2022-11-18T01:33:23;98304.56;;;11.84;100.00
36788;BME280;22738;45.560;9.434;2022-11-18T01:40:06;98290.75;;;11.84;100.00
36788;BME280;22738;45.560;9.434;2022-11-18T01:46:47;98283.63;;;11.86;100.00
36788;BME280;22738;45.560;9.434;2022-11-18T01:53:36;98264.78;;;11.84;100.00
36788;BME280;22738;45.560;9.434;2022-11-18T02:00:18;98253.47;;;11.85;100.00
36788;BME280;22738;45.560;9.434;2022-11-18T02:07:00;98252.75;;;11.92;100.00
36788;BME280;22738;45.560;9.434;2022-11-18T02:13:42;98275.69;;;11.97;100.00
36788;BME280;22738;45.560;9.434;2022-11-18T02:20:30;98267.31;;;12.03;100.00
36788;BME280;22738;45.560;9.434;2022-11-18T02:41:17;98299.38;;;12.11;100.00
36788;BME280;22738;45.560;9.434;2022-11-18T02:48:06;98282.16;;;12.10;100.00
36788;BME280;22738;45.560;9.434;2022-11-18T02:54:49;98271.47;;;12.13;100.00
36788;BME280;22738;45.560;9.434;2022-11-18T03:01:33;98283.50;;;12.14;100.00
36788;BME280;22738;45.560;9.434;2022-11-18T03:08:19;98252.34;;;12.14;100.00
36788;BME280;22738;45.560;9.434;2022-11-18T03:15:17;98256.72;;;12.14;100.00
36788;BME280;22738;45.560;9.434;2022-11-18T03:29:22;98266.16;;;12.15;100.00
36788;BME280;22738;45.560;9.434;2022-11-18T03:36:07;98273.13;;;12.14;100.00
36788;BME280;22738;45.560;9.434;2022-11-18T03:43:01;98261.22;;;12.12;100.00
36788;BME280;22738;45.560;9.434;2022-11-18T03:49:50;98254.78;;;12.16;100.00
36788;BME280;22738;45.560;9.434;2022-11-18T03:56:37;98255.59;;;12.16;100.00
36788;BME280;22738;45.560;9.434;2022-11-18T04:03:22;98244.09;;;12.19;100.00
36788;BME280;22738;45.560;9.434;2022-11-18T04:10:12;98243.13;;;12.20;100.00
36788;BME280;22738;45.560;9.434;2022-11-18T04:16:54;98238.91;;;12.19;100.00
36788;BME280;22738;45.560;9.434;2022-11-18T04:23:35;98237.25;;;12.18;100.00
36788;BME280;22738;45.560;9.434;2022-11-18T04:30:16;98240.84;;;12.17;100.00
36788;BME280;22738;45.560;9.434;2022-11-18T04:36:59;98247.00;;;12.16;100.00
36788;BME280;22738;45.560;9.434;2022-11-18T04:43:40;98241.50;;;12.19;100.00
36788;BME280;22738;45.560;9.434;2022-11-18T04:50:21;98231.78;;;12.21;100.00
36788;BME280;22738;45.560;9.434;2022-11-18T04:57:02;98217.81;;;12.22;100.00
36788;BME280;22738;45.560;9.434;2022-11-18T05:03:43;98184.50;;;12.17;100.00
36788;BME280;22738;45.560;9.434;2022-11-18T05:10:24;98166.69;;;12.05;100.00
36788;BME280;22738;45.560;9.434;2022-11-18T05:17:07;98191.31;;;11.83;100.00
36788;BME280;22738;45.560;9.434;2022-11-18T05:23:48;98228.44;;;11.84;100.00
36788;BME280;22738;45.560;9.434;2022-11-18T05:30:29;98208.00;;;11.81;100.00
36788;BME280;22738;45.560;9.434;2022-11-18T05:37:11;98202.81;;;11.81;100.00
36788;BME280;22738;45.560;9.434;2022-11-18T05:43:52;98182.31;;;11.78;100.00
36788;BME280;22738;45.560;9.434;2022-11-18T05:50:35;98196.31;;;11.67;100.00
36788;BME280;22738;45.560;9.434;2022-11-18T05:57:16;98198.25;;;11.56;100.00
36788;BME280;22738;45.560;9.434;2022-11-18T06:03:59;98213.34;;;11.42;100.00
36788;BME280;22738;45.560;9.434;2022-11-18T06:10:43;98223.19;;;11.29;100.00
36788;BME280;22738;45.560;9.434;2022-11-18T06:17:33;98228.13;;;11.23;100.00
36788;BME280;22738;45.560;9.434;2022-11-18T06:24:16;98237.41;;;11.25;100.00
36788;BME280;22738;45.560;9.434;2022-11-18T06:30:58;98237.13;;;11.38;100.00
36788;BME280;22738;45.560;9.434;2022-11-18T06:37:39;98236.50;;;11.54;100.00
36788;BME280;22738;45.560;9.434;2022-11-18T06:44:20;98237.00;;;11.67;100.00
36788;BME280;22738;45.560;9.434;2022-11-18T06:51:07;98243.75;;;11.87;100.00
36788;BME280;22738;45.560;9.434;2022-11-18T06:57:48;98246.13;;;11.98;100.00
36788;BME280;22738;45.560;9.434;2022-11-18T07:04:29;98248.84;;;12.06;100.00
36788;BME280;22738;45.560;9.434;2022-11-18T07:11:12;98241.78;;;12.16;100.00
36788;BME280;22738;45.560;9.434;2022-11-18T07:17:53;98243.00;;;12.39;100.00
36788;BME280;22738;45.560;9.434;2022-11-18T07:24:35;98233.31;;;12.84;100.00
36788;BME280;22738;45.560;9.434;2022-11-18T07:31:19;98242.84;;;13.02;100.00
36788;BME280;22738;45.560;9.434;2022-11-18T07:38:00;98246.69;;;13.33;100.00
36788;BME280;22738;45.560;9.434;2022-11-18T07:44:41;98262.94;;;14.44;100.00
36788;BME280;22738;45.560;9.434;2022-11-18T07:51:24;98275.53;;;16.23;100.00
36788;BME280;22738;45.560;9.434;2022-11-18T07:58:06;98284.47;;;15.98;100.00
36788;BME280;22738;45.560;9.434;2022-11-18T08:04:47;98288.69;;;16.68;100.00
36788;BME280;22738;45.560;9.434;2022-11-18T08:11:29;98291.00;;;18.04;100.00
36788;BME280;22738;45.560;9.434;2022-11-18T08:18:10;98282.00;;;15.57;100.00
36788;BME280;22738;45.560;9.434;2022-11-18T08:24:51;98282.94;;;17.33;100.00
36788;BME280;22738;45.560;9.434;2022-11-18T08:31:32;98276.41;;;18.88;100.00
36788;BME280;22738;45.560;9.434;2022-11-18T08:38:13;98290.09;;;18.12;100.00
36788;BME280;22738;45.560;9.434;2022-11-18T08:44:54;98298.34;;;17.94;100.00
36788;BME280;22738;45.560;9.434;2022-11-18T08:51:35;98304.25;;;17.07;100.00
36788;BME280;22738;45.560;9.434;2022-11-18T08:58:16;98287.19;;;16.51;100.00
36788;BME280;22738;45.560;9.434;2022-11-18T09:04:58;98288.44;;;16.55;100.00
36788;BME280;22738;45.560;9.434;2022-11-18T09:11:39;98297.16;;;17.67;100.00
36788;BME280;22738;45.560;9.434;2022-11-18T09:18:22;98296.72;;;15.26;100.00
36788;BME280;22738;45.560;9.434;2022-11-18T09:25:04;98294.91;;;16.06;100.00
36788;BME280;22738;45.560;9.434;2022-11-18T09:31:45;98293.44;;;15.16;100.00
36788;BME280;22738;45.560;9.434;2022-11-18T09:38:28;98294.75;;;14.80;100.00
36788;BME280;22738;45.560;9.434;2022-11-18T09:45:20;98309.38;;;14.57;100.00
36788;BME280;22738;45.560;9.434;2022-11-18T09:58:53;98334.94;;;17.36;100.00
36788;BME280;22738;45.560;9.434;2022-11-18T10:05:42;98335.66;;;18.11;100.00
36788;BME280;22738;45.560;9.434;2022-11-18T10:12:49;98343.91;;;17.78;100.00
36788;BME280;22738;45.560;9.434;2022-11-18T10:19:55;98343.88;;;16.81;100.00
36788;BME280;22738;45.560;9.434;2022-11-18T10:26:38;98333.38;;;16.20;100.00
36788;BME280;22738;45.560;9.434;2022-11-18T10:40:04;98325.72;;;15.72;100.00
36788;BME280;22738;45.560;9.434;2022-11-18T10:46:45;98312.78;;;15.70;100.00
36788;BME280;22738;45.560;9.434;2022-11-18T10:53:35;98322.78;;;15.58;100.00
36788;BME280;22738;45.560;9.434;2022-11-18T11:01:12;98327.38;;;15.48;100.00
36788;BME280;22738;45.560;9.434;2022-11-18T11:07:40;98321.16;;;15.49;100.00
36788;BME280;22738;45.560;9.434;2022-11-18T11:14:52;98308.59;;;15.45;100.00
36788;BME280;22738;45.560;9.434;2022-11-18T11:21:34;98318.25;;;15.28;100.00
36788;BME280;22738;45.560;9.434;2022-11-18T11:35:21;98312.22;;;15.44;100.00
36788;BME280;22738;45.560;9.434;2022-11-18T11:49:28;98316.91;;;15.56;100.00
36788;BME280;22738;45.560;9.434;2022-11-18T11:56:38;98325.06;;;15.61;100.00
36788;BME280;22738;45.560;9.434;2022-11-18T12:03:51;98316.06;;;15.72;100.00
36788;BME280;22738;45.560;9.434;2022-11-18T12:18:00;98303.00;;;15.80;100.00
36788;BME280;22738;45.560;9.434;2022-11-18T12:24:42;98301.16;;;15.89;100.00
36788;BME280;22738;45.560;9.434;2022-11-18T12:38:29;98291.63;;;16.04;100.00
36788;BME280;22738;45.560;9.434;2022-11-18T12:59:11;98280.50;;;16.10;100.00
36788;BME280;22738;45.560;9.434;2022-11-18T13:05:59;98278.34;;;16.13;100.00
36788;BME280;22738;45.560;9.434;2022-11-18T13:12:44;98267.38;;;16.18;100.00
36788;BME280;22738;45.560;9.434;2022-11-18T13:19:25;98261.19;;;16.19;100.00
36788;BME280;22738;45.560;9.434;2022-11-18T13:26:16;98265.75;;;16.17;100.00
36788;BME280;22738;45.560;9.434;2022-11-18T13:32:58;98275.22;;;16.18;100.00
36788;BME280;22738;45.560;9.434;2022-11-18T13:39:42;98286.16;;;16.21;100.00
36788;BME280;22738;45.560;9.434;2022-11-18T13:46:24;98280.56;;;16.24;100.00
36788;BME280;22738;45.560;9.434;2022-11-18T14:00:01;98278.84;;;16.17;100.00
36788;BME280;22738;45.560;9.434;2022-11-18T14:06:45;98283.25;;;16.16;100.00
36788;BME280;22738;45.560;9.434;2022-11-18T14:13:34;98289.94;;;16.11;100.00
36788;BME280;22738;45.560;9.434;2022-11-18T14:20:16;98277.13;;;16.01;100.00
36788;BME280;22738;45.560;9.434;2022-11-18T14:26:57;98282.03;;;15.96;100.00
36788;BME280;22738;45.560;9.434;2022-11-18T14:33:38;98302.44;;;15.93;100.00
36788;BME280;22738;45.560;9.434;2022-11-18T14:40:19;98296.75;;;15.81;100.00
36788;BME280;22738;45.560;9.434;2022-11-18T14:47:02;98297.63;;;15.74;100.00
36788;BME280;22738;45.560;9.434;2022-11-18T14:53:43;98290.16;;;15.62;100.00
36788;BME280;22738;45.560;9.434;2022-11-18T15:00:25;98293.13;;;15.51;100.00
36788;BME280;22738;45.560;9.434;2022-11-18T15:07:09;98294.41;;;15.39;100.00
36788;BME280;22738;45.560;9.434;2022-11-18T15:13:52;98303.53;;;15.27;100.00
36788;BME280;22738;45.560;9.434;2022-11-18T15:20:33;98313.19;;;15.19;100.00
36788;BME280;22738;45.560;9.434;2022-11-18T15:27:14;98310.09;;;15.07;100.00
36788;BME280;22738;45.560;9.434;2022-11-18T15:33:55;98306.34;;;14.85;100.00
36788;BME280;22738;45.560;9.434;2022-11-18T15:40:36;98311.03;;;14.66;100.00
36788;BME280;22738;45.560;9.434;2022-11-18T15:47:18;98302.84;;;14.45;100.00
36788;BME280;22738;45.560;9.434;2022-11-18T15:53:59;98310.38;;;14.22;100.00
36788;BME280;22738;45.560;9.434;2022-11-18T16:00:40;98308.06;;;14.03;100.00
36788;BME280;22738;45.560;9.434;2022-11-18T16:07:21;98323.16;;;13.99;100.00
36788;BME280;22738;45.560;9.434;2022-11-18T16:14:11;98321.84;;;13.95;100.00
36788;BME280;22738;45.560;9.434;2022-11-18T16:20:59;98347.81;;;13.79;100.00
36788;BME280;22738;45.560;9.434;2022-11-18T16:27:40;98368.59;;;13.71;100.00
36788;BME280;22738;45.560;9.434;2022-11-18T16:34:24;98389.06;;;13.66;100.00
36788;BME280;22738;45.560;9.434;2022-11-18T16:41:05;98394.91;;;13.60;100.00
36788;BME280;22738;45.560;9.434;2022-11-18T16:48:06;98396.38;;;13.45;100.00
36788;BME280;22738;45.560;9.434;2022-11-18T16:54:47;98396.94;;;13.31;100.00
36788;BME280;22738;45.560;9.434;2022-11-18T17:01:28;98402.06;;;13.23;100.00
36788;BME280;22738;45.560;9.434;2022-11-18T17:08:09;98407.88;;;13.17;100.00
36788;BME280;22738;45.560;9.434;2022-11-18T17:14:50;98414.78;;;13.26;100.00
36788;BME280;22738;45.560;9.434;2022-11-18T17:21:31;98436.47;;;13.34;100.00
36788;BME280;22738;45.560;9.434;2022-11-18T17:28:12;98451.50;;;13.40;100.00
36788;BME280;22738;45.560;9.434;2022-11-18T17:34:53;98462.00;;;13.31;100.00
36788;BME280;22738;45.560;9.434;2022-11-18T17:41:34;98475.81;;;13.14;100.00
36788;BME280;22738;45.560;9.434;2022-11-18T17:48:34;98469.88;;;12.94;100.00
36788;BME280;22738;45.560;9.434;2022-11-18T17:55:15;98483.16;;;12.64;100.00
36788;BME280;22738;45.560;9.434;2022-11-18T18:01:56;98505.44;;;12.30;100.00
36788;BME280;22738;45.560;9.434;2022-11-18T18:08:38;98510.16;;;12.07;100.00
36788;BME280;22738;45.560;9.434;2022-11-18T18:15:19;98497.72;;;12.10;100.00
36788;BME280;22738;45.560;9.434;2022-11-18T18:22:00;98486.41;;;11.92;100.00
36788;BME280;22738;45.560;9.434;2022-11-18T18:28:41;98492.69;;;11.71;100.00
36788;BME280;22738;45.560;9.434;2022-11-18T18:35:22;98495.16;;;11.72;100.00
36788;BME280;22738;45.560;9.434;2022-11-18T18:42:03;98507.41;;;11.41;100.00
36788;BME280;22738;45.560;9.434;2022-11-18T18:48:44;98496.50;;;11.28;100.00
36788;BME280;22738;45.560;9.434;2022-11-18T18:55:26;98475.75;;;11.28;100.00
36788;BME280;22738;45.560;9.434;2022-11-18T19:02:10;98484.06;;;11.13;100.00
36788;BME280;22738;45.560;9.434;2022-11-18T19:08:52;98487.78;;;10.80;100.00
36788;BME280;22738;45.560;9.434;2022-11-18T19:15:35;98491.59;;;10.76;100.00
36788;BME280;22738;45.560;9.434;2022-11-18T19:22:18;98511.06;;;10.70;100.00
36788;BME280;22738;45.560;9.434;2022-11-18T19:28:59;98509.16;;;10.63;100.00
36788;BME280;22738;45.560;9.434;2022-11-18T19:35:40;98504.31;;;10.49;100.00
36788;BME280;22738;45.560;9.434;2022-11-18T19:42:23;98498.34;;;10.28;100.00
36788;BME280;22738;45.560;9.434;2022-11-18T19:49:05;98518.22;;;10.48;100.00
36788;BME280;22738;45.560;9.434;2022-11-18T19:55:52;98523.72;;;10.34;100.00
36788;BME280;22738;45.560;9.434;2022-11-18T20:02:33;98535.13;;;10.22;100.00
36788;BME280;22738;45.560;9.434;2022-11-18T20:09:14;98542.88;;;10.22;100.00
36788;BME280;22738;45.560;9.434;2022-11-18T20:16:03;98530.53;;;9.93;100.00
36788;BME280;22738;45.560;9.434;2022-11-18T20:22:45;98543.34;;;9.74;100.00
36788;BME280;22738;45.560;9.434;2022-11-18T20:29:26;98538.78;;;9.67;100.00
36788;BME280;22738;45.560;9.434;2022-11-18T20:36:09;98526.03;;;9.75;100.00
36788;BME280;22738;45.560;9.434;2022-11-18T20:42:50;98530.19;;;9.66;100.00
36788;BME280;22738;45.560;9.434;2022-11-18T20:49:50;98538.19;;;9.63;100.00
36788;BME280;22738;45.560;9.434;2022-11-18T20:56:31;98526.72;;;9.56;100.00
36788;BME280;22738;45.560;9.434;2022-11-18T21:03:12;98530.75;;;9.49;100.00
36788;BME280;22738;45.560;9.434;2022-11-18T21:09:54;98548.59;;;9.52;100.00
36788;BME280;22738;45.560;9.434;2022-11-18T21:16:35;98554.13;;;9.48;100.00
36788;BME280;22738;45.560;9.434;2022-11-18T21:23:16;98540.66;;;9.33;100.00
36788;BME280;22738;45.560;9.434;2022-11-18T21:29:57;98555.94;;;9.68;100.00
36788;BME280;22738;45.560;9.434;2022-11-18T21:36:39;98565.88;;;9.52;100.00
36788;BME280;22738;45.560;9.434;2022-11-18T21:43:20;98582.94;;;9.43;100.00
36788;BME280;22738;45.560;9.434;2022-11-18T21:50:01;98589.16;;;9.41;100.00
36788;BME280;22738;45.560;9.434;2022-11-18T21:56:42;98586.38;;;9.32;100.00
36788;BME280;22738;45.560;9.434;2022-11-18T22:03:23;98585.56;;;9.21;100.00
36788;BME280;22738;45.560;9.434;2022-11-18T22:10:05;98597.53;;;9.11;100.00
36788;BME280;22738;45.560;9.434;2022-11-18T22:16:46;98603.19;;;9.05;100.00
36788;BME280;22738;45.560;9.434;2022-11-18T22:23:32;98608.59;;;9.02;100.00
36788;BME280;22738;45.560;9.434;2022-11-18T22:30:14;98615.19;;;9.17;100.00
36788;BME280;22738;45.560;9.434;2022-11-18T22:36:55;98623.41;;;9.33;100.00
36788;BME280;22738;45.560;9.434;2022-11-18T22:43:36;98632.69;;;9.36;100.00
36788;BME280;22738;45.560;9.434;2022-11-18T22:50:17;98638.28;;;9.41;100.00
36788;BME280;22738;45.560;9.434;2022-11-18T22:56:58;98637.41;;;9.73;100.00
36788;BME280;22738;45.560;9.434;2022-11-18T23:03:41;98647.53;;;9.76;100.00
36788;BME280;22738;45.560;9.434;2022-11-18T23:10:22;98658.28;;;9.61;100.00
36788;BME280;22738;45.560;9.434;2022-11-18T23:17:04;98660.50;;;9.43;100.00
36788;BME280;22738;45.560;9.434;2022-11-18T23:23:46;98664.16;;;9.29;100.00
36788;BME280;22738;45.560;9.434;2022-11-18T23:30:27;98679.09;;;9.48;100.00
36788;BME280;22738;45.560;9.434;2022-11-18T23:37:07;98678.16;;;9.27;100.00
36788;BME280;22738;45.560;9.434;2022-11-18T23:43:49;98670.66;;;9.13;100.00
36788;BME280;22738;45.560;9.434;2022-11-18T23:50:31;98667.81;;;8.94;100.00
36788;BME280;22738;45.560;9.434;2022-11-18T23:57:13;98655.47;;;8.86;100.00
